x

Luke Offshore Test Platform - 64 Nm South Of Dauphin Island, Al (42040) Wave Buoy

8:50pm - Mon 6th Jul 2015 All times are CDT. -5 hours from GMT.

  • Sig Wave height 1.3ft
  • Swell Direction
  • Peak Period 5s
  • Average Period 5s
  • Wind
    11mph, 13mph gusts
  • Sea Temp 87°f
  • Air Temp 84°f
  • Sea Pressure 1019.2mb
  • Luke Offshore Test Platform - 64 Nm South Of Dauphin Island, Al
  • Luke Offshore Test Platform - 64 Nm South Of Dauphin Island, Al

More Historic Weather Station data

Upgrade to MSW Pro to gain access to the past 30 days of data for over 8000 Wavebouys and Weather Stations around the globe.

Join Pro

Comparision Forecast

View Surf forecast
   
Mon 07/06 8:50pm 1.3ft 5s 5s 11 13 mph 1019.2mb 87f 84f
7:50pm 1.3ft 6s 5s 11 13 mph 1019.4mb 88f 84f
6:50pm 1.3ft 6s 5s 7 9 mph 1019.7mb 89f 84f
5:50pm 1.3ft 6s 5s 7 9 mph 1020mb 89f 85f
4:50pm 1.3ft 5s 4s 7 9 mph 1020.5mb 89f 85f
3:50pm 1.3ft 6s 4s 7 11 mph 1020.9mb 89f 84f
2:50pm 1.3ft 6s 4s 7 9 mph 1021.4mb 89f 84f
1:50pm 1.3ft 6s 4s 4 7 mph 1021.9mb 89f 84f
12:50pm 1.3ft 5s 4s 2 4 mph 1022mb 88f 84f
11:50am 1.3ft 5s 4s 2
mph
1022.4mb 86f 84f
10:50am 1.3ft 5s 4s 2 4 mph 1022.6mb 85f 84f
9:50am 1.3ft 6s 4s 2
mph
1022.7mb 85f 84f
8:50am 1.3ft 5s 4s 7
mph
1022.6mb 84f 83f
7:50am 1.3ft 5s 4s 4 7 mph 1021.9mb 84f 83f
6:50am 1.3ft 5s 4s 4 7 mph 1021.3mb 84f 82f
5:50am 1.3ft 5s 4s 7 9 mph 1020.5mb 84f 82f
4:50am 1.3ft 5s 4s 7 11 mph 1020.1mb 84f 82f
3:50am 1.6ft 5s 4s 9 11 mph 1019.5mb 84f 81f
2:50am 1.6ft 5s 4s 9 11 mph 1019.3mb 84f 81f
1:50am 2ft 5s 4s 11 16 mph 1019.2mb 84f 81f
12:50am 2ft 5s 4s 13 16 mph 1020mb 84f 81f
Sun 07/05 11:50pm 2.5ft 5s 4s 7 11 mph 1020.5mb 84f 81f
10:50pm 3ft 5s 4s 2 4 mph 1020.7mb 84f 80f
9:50pm 3ft 5s 4s 25 29 mph 1022mb 85f 79f
8:50pm 3ft 4s 4s 13 16 mph 1021mb 85f 81f
7:50pm 1.6ft 3s 3s 20 25 mph 1021.2mb 85f 79f
6:50pm 1ft 5s 4s 16 20 mph 1020.2mb 85f 83f
5:50pm 1.3ft 5s 4s 7 11 mph 1019.9mb 85f 82f
4:50pm 1.3ft 5s 4s 13 22 mph 1020.7mb 87f 80f
3:50pm 1.6ft 5s 4s 9 11 mph 1020.2mb 87f 83f
2:50pm 1.6ft 5s 4s 7
mph
1020.5mb 87f 83f
1:50pm 1.6ft 4s 4s 9
mph
1020.9mb 87f 83f
12:50pm 1.6ft 4s 4s 4 7 mph 1021.7mb 86f 82f
11:50am 1.6ft 4s 4s 4 7 mph 1020.8mb 85f 81f
10:50am 1.3ft 5s 4s 9 13 mph 1021.5mb 85f 81f
9:50am 1.3ft 4s 3s 16 20 mph 1021mb 85f 80f
8:50am 1.3ft 5s 4s 13 16 mph 1020.4mb 86f 84f
7:50am 1.3ft 4s 3s 11 13 mph 1020.3mb 85f 84f
6:50am 1.6ft 4s 4s 13 16 mph 1020mb 85f 84f
5:50am 1.3ft 4s 3s 13 16 mph 1019.4mb 85f 84f
4:50am 1.6ft 4s 4s 13 16 mph 1018.9mb 85f 84f
3:50am 1.6ft 4s 4s 11 13 mph 1018.8mb 86f 84f
2:50am 1.6ft 5s 4s 11 13 mph 1018.5mb 86f 84f
1:50am 1.6ft 4s 4s 11 13 mph 1018.8mb 86f 83f
12:50am 1.6ft 5s 4s 11 16 mph 1018.9mb 86f 83f
Sat 07/04 11:50pm 1.6ft 4s 4s 11 13 mph 1019.4mb 86f 84f
10:50pm 1.6ft 4s 4s 11 13 mph 1019.4mb 86f 84f
9:50pm 1.3ft 5s 4s 9 11 mph 1018.7mb 87f 85f
8:50pm 1.6ft 4s 4s 7 9 mph 1018.4mb 87f 84f
7:50pm 1.6ft 4s 4s 7
mph
1018.6mb 88f 85f
6:50pm 1.6ft 5s 4s 7 9 mph 1018.1mb 88f 85f
5:50pm 1.6ft 4s 4s 9 11 mph 1017.9mb 88f 86f
4:50pm 1.6ft 4s 4s 9 11 mph 1017.6mb 88f 86f
3:50pm 1.6ft 4s 4s 11 13 mph 1017.7mb 88f 85f
2:50pm 2ft 4s 4s 11 13 mph 1017.9mb 88f 85f
1:50pm 1.6ft 4s 4s 11 13 mph 1018.2mb 87f 85f
12:50pm 2ft 6s 4s 9 11 mph 1018.9mb 87f 85f
11:50am 2ft 4s 4s 9 11 mph 1019.2mb 86f 85f
10:50am 2ft 4s 4s 9 11 mph 1019.5mb 85f 85f
9:50am 2ft 4s 4s 11 13 mph 1019.5mb 85f 84f
8:50am 2.5ft 4s 4s 11 13 mph 1019.3mb 84f 84f
7:50am 2ft 4s 4s 13 16 mph 1018.6mb 84f 84f
6:50am 2ft 3s 4s 16
mph
1018.3mb 84f 83f
5:50am 1.6ft 5s 4s 13 16 mph 1017.8mb 84f 83f
4:50am 1.6ft 4s 4s 13 16 mph 1017.4mb 84f 83f
3:50am 1.6ft 6s 3s 13 16 mph 1017.3mb 84f 84f
2:50am 1.6ft 5s 4s 13 16 mph 1017.5mb 85f 84f
1:50am 1.3ft 5s 3s 13 16 mph 1017.8mb 84f 84f
12:50am 1.6ft 7s 4s 13 16 mph 1017.9mb 85f 84f
Fri 07/03 11:50pm 1.6ft 7s 4s 13 16 mph 1018.3mb 85f 84f
10:50pm 1.6ft 6s 4s 11 13 mph 1018.1mb 85f 84f
9:50pm 1.6ft 5s 4s 11 16 mph 1017.6mb 85f 84f
8:50pm 1.6ft 4s 4s 11
mph
1017.1mb 86f 84f
7:50pm 1.6ft 5s 4s 11 13 mph 1017.1mb 86f 84f
6:50pm 1.6ft 5s 4s 7 9 mph 1017.1mb 86f 85f
5:50pm 1.6ft 4s 4s 7
mph
1017.3mb 86f 85f
4:50pm 2ft 4s 4s 7
mph
1017.6mb 86f 84f
3:50pm 1.6ft 6s 4s 9 11 mph 1017.8mb 87f 83f
2:50pm 1.6ft 7s 4s 7 9 mph 1018.3mb 88f 85f
1:50pm 2ft 5s 4s 7 9 mph 1018.4mb 88f 85f
12:50pm 2ft 7s 4s 4
mph
1018.7mb 87f 85f
11:50am 2ft 5s 4s 7 9 mph 1018.9mb 86f 84f
10:50am 2ft 5s 4s 7
mph
1018.6mb 86f 84f
9:50am 2ft 6s 4s 7 9 mph 1018.3mb 85f 84f
8:50am 2ft 5s 4s 7 9 mph 1018.4mb 84f 84f
7:50am 2ft 4s 4s 9 11 mph 1018.3mb 84f 84f
6:50am 2ft 4s 4s 11 13 mph 1018.1mb 84f 83f
5:50am 1.6ft 5s 4s 11 13 mph 1017.8mb 84f 83f
4:50am 1.6ft 4s 4s 13 16 mph 1017.6mb 84f 83f
3:50am 1.6ft 3s 4s 13 16 mph 1017.5mb 84f 83f